Terminal Aerodrome Forecast
Issued by NWS

Home | Current Version | Previous Version | Text Only | Print | Product List | Glossary On
Versions: 1 2 3 4 5 6 7 8 9 10 11 12 13 14 15 16 17 18 19 20 21 22 23 24 25 26
000
FTAK31 PANC 190535
TAFADL
TAF
PADL 190535Z 1906/2006 35005KT P6SM SCT100
     FM191700 01007KT P6SM BKN050
     FM192200 04009KT 5SM -SHSN BR SCT020 BKN035 WS010/16025KT
     FM200300 14007KT 2SM -SN BR SCT007 BKN012=

USA.gov is the U.S. government's official web portal to all federal, state and local government web resources and services.